sensor_id;sensor_type;location;lat;lon;timestamp;temperature;humidity
5419;DHT22;2732;52.092;11.556;2024-01-27T00:03:11;4.50;99.90
5419;DHT22;2732;52.092;11.556;2024-01-27T00:08:12;4.50;99.90
5419;DHT22;2732;52.092;11.556;2024-01-27T00:13:13;4.50;99.90
5419;DHT22;2732;52.092;11.556;2024-01-27T00:18:15;4.50;99.90
5419;DHT22;2732;52.092;11.556;2024-01-27T00:23:18;4.40;99.90
5419;DHT22;2732;52.092;11.556;2024-01-27T00:28:19;4.40;99.90
5419;DHT22;2732;52.092;11.556;2024-01-27T00:33:20;4.40;99.90
5419;DHT22;2732;52.092;11.556;2024-01-27T00:38:22;4.30;99.90
5419;DHT22;2732;52.092;11.556;2024-01-27T00:43:22;4.30;99.90
5419;DHT22;2732;52.092;11.556;2024-01-27T00:48:23;4.30;99.90
5419;DHT22;2732;52.092;11.556;2024-01-27T00:53:24;4.30;99.90
5419;DHT22;2732;52.092;11.556;2024-01-27T00:58:24;4.30;99.90
5419;DHT22;2732;52.092;11.556;2024-01-27T01:03:25;4.20;99.90
5419;DHT22;2732;52.092;11.556;2024-01-27T01:08:25;4.20;99.90
5419;DHT22;2732;52.092;11.556;2024-01-27T01:13:26;4.20;99.90
5419;DHT22;2732;52.092;11.556;2024-01-27T01:18:27;4.10;99.90
5419;DHT22;2732;52.092;11.556;2024-01-27T01:23:27;4.10;99.90
5419;DHT22;2732;52.092;11.556;2024-01-27T01:28:28;4.10;99.90
5419;DHT22;2732;52.092;11.556;2024-01-27T01:33:28;4.10;99.90
5419;DHT22;2732;52.092;11.556;2024-01-27T01:38:29;4.10;99.90
5419;DHT22;2732;52.092;11.556;2024-01-27T01:43:30;4.10;99.90
5419;DHT22;2732;52.092;11.556;2024-01-27T01:48:30;4.10;99.90
5419;DHT22;2732;52.092;11.556;2024-01-27T01:53:31;4.20;99.90
5419;DHT22;2732;52.092;11.556;2024-01-27T01:58:32;4.20;99.90
5419;DHT22;2732;52.092;11.556;2024-01-27T02:03:34;4.30;99.90
5419;DHT22;2732;52.092;11.556;2024-01-27T02:08:35;4.30;99.90
5419;DHT22;2732;52.092;11.556;2024-01-27T02:13:35;4.30;99.90
5419;DHT22;2732;52.092;11.556;2024-01-27T02:18:36;4.30;99.90
5419;DHT22;2732;52.092;11.556;2024-01-27T02:23:37;4.40;99.90
5419;DHT22;2732;52.092;11.556;2024-01-27T02:28:37;4.40;99.90
5419;DHT22;2732;52.092;11.556;2024-01-27T02:33:38;4.40;99.90
5419;DHT22;2732;52.092;11.556;2024-01-27T02:38:38;4.40;99.90
5419;DHT22;2732;52.092;11.556;2024-01-27T02:43:40;4.40;99.90
5419;DHT22;2732;52.092;11.556;2024-01-27T02:48:44;4.40;99.90
5419;DHT22;2732;52.092;11.556;2024-01-27T02:53:45;4.40;99.90
5419;DHT22;2732;52.092;11.556;2024-01-27T02:58:45;4.40;99.90
5419;DHT22;2732;52.092;11.556;2024-01-27T03:03:46;4.40;99.90
5419;DHT22;2732;52.092;11.556;2024-01-27T03:08:47;4.40;99.90
5419;DHT22;2732;52.092;11.556;2024-01-27T03:13:47;4.40;99.90
5419;DHT22;2732;52.092;11.556;2024-01-27T03:18:48;4.40;99.90
5419;DHT22;2732;52.092;11.556;2024-01-27T03:23:48;4.40;99.90
5419;DHT22;2732;52.092;11.556;2024-01-27T03:28:49;4.40;99.90
5419;DHT22;2732;52.092;11.556;2024-01-27T03:33:49;4.40;99.90
5419;DHT22;2732;52.092;11.556;2024-01-27T03:38:50;4.40;99.90
5419;DHT22;2732;52.092;11.556;2024-01-27T03:43:51;4.40;99.90
5419;DHT22;2732;52.092;11.556;2024-01-27T03:48:51;4.40;99.90
5419;DHT22;2732;52.092;11.556;2024-01-27T03:53:52;4.30;99.90
5419;DHT22;2732;52.092;11.556;2024-01-27T03:58:52;4.30;99.90
5419;DHT22;2732;52.092;11.556;2024-01-27T04:03:53;4.20;99.90
5419;DHT22;2732;52.092;11.556;2024-01-27T04:08:53;4.20;99.90
5419;DHT22;2732;52.092;11.556;2024-01-27T04:13:54;4.10;99.90
5419;DHT22;2732;52.092;11.556;2024-01-27T04:18:55;4.10;99.90
5419;DHT22;2732;52.092;11.556;2024-01-27T04:23:56;4.10;99.90
5419;DHT22;2732;52.092;11.556;2024-01-27T04:28:57;4.10;99.90
5419;DHT22;2732;52.092;11.556;2024-01-27T04:33:57;4.10;99.90
5419;DHT22;2732;52.092;11.556;2024-01-27T04:38:58;4.00;99.90
5419;DHT22;2732;52.092;11.556;2024-01-27T04:43:59;4.00;99.90
5419;DHT22;2732;52.092;11.556;2024-01-27T04:49:00;4.00;99.90
5419;DHT22;2732;52.092;11.556;2024-01-27T04:54:00;4.00;99.90
5419;DHT22;2732;52.092;11.556;2024-01-27T04:59:01;4.00;99.90
5419;DHT22;2732;52.092;11.556;2024-01-27T05:04:01;4.00;99.90
5419;DHT22;2732;52.092;11.556;2024-01-27T05:09:02;3.90;99.90
5419;DHT22;2732;52.092;11.556;2024-01-27T05:14:03;3.90;99.90
5419;DHT22;2732;52.092;11.556;2024-01-27T05:19:03;3.90;99.90
5419;DHT22;2732;52.092;11.556;2024-01-27T05:24:04;3.90;99.90
5419;DHT22;2732;52.092;11.556;2024-01-27T05:29:05;3.90;99.90
5419;DHT22;2732;52.092;11.556;2024-01-27T05:34:06;3.80;99.90
5419;DHT22;2732;52.092;11.556;2024-01-27T05:39:06;3.90;99.90
5419;DHT22;2732;52.092;11.556;2024-01-27T05:44:07;3.90;99.90
5419;DHT22;2732;52.092;11.556;2024-01-27T05:49:07;3.90;99.90
5419;DHT22;2732;52.092;11.556;2024-01-27T05:54:08;3.90;99.90
5419;DHT22;2732;52.092;11.556;2024-01-27T05:59:10;4.00;99.90
5419;DHT22;2732;52.092;11.556;2024-01-27T06:04:11;4.00;99.90
5419;DHT22;2732;52.092;11.556;2024-01-27T06:09:14;4.00;99.90
5419;DHT22;2732;52.092;11.556;2024-01-27T06:14:15;4.00;99.90
5419;DHT22;2732;52.092;11.556;2024-01-27T06:19:15;4.10;99.90
5419;DHT22;2732;52.092;11.556;2024-01-27T06:24:16;4.10;99.90
5419;DHT22;2732;52.092;11.556;2024-01-27T06:29:16;4.10;99.90
5419;DHT22;2732;52.092;11.556;2024-01-27T06:34:19;4.10;99.90
5419;DHT22;2732;52.092;11.556;2024-01-27T06:39:19;4.10;99.90
5419;DHT22;2732;52.092;11.556;2024-01-27T06:44:21;4.10;99.90
5419;DHT22;2732;52.092;11.556;2024-01-27T06:49:22;4.10;99.90
5419;DHT22;2732;52.092;11.556;2024-01-27T06:54:24;4.20;99.90
5419;DHT22;2732;52.092;11.556;2024-01-27T06:59:24;4.20;99.90
5419;DHT22;2732;52.092;11.556;2024-01-27T07:04:25;4.20;99.90
5419;DHT22;2732;52.092;11.556;2024-01-27T07:09:25;4.20;99.90
5419;DHT22;2732;52.092;11.556;2024-01-27T07:14:26;4.10;99.90
5419;DHT22;2732;52.092;11.556;2024-01-27T07:19:27;4.10;99.90
5419;DHT22;2732;52.092;11.556;2024-01-27T07:24:28;4.00;99.90
5419;DHT22;2732;52.092;11.556;2024-01-27T07:29:29;4.00;99.90
5419;DHT22;2732;52.092;11.556;2024-01-27T07:34:30;4.00;99.90
5419;DHT22;2732;52.092;11.556;2024-01-27T07:39:30;3.90;99.90
5419;DHT22;2732;52.092;11.556;2024-01-27T07:44:31;3.90;99.90
5419;DHT22;2732;52.092;11.556;2024-01-27T07:49:32;3.90;99.90
5419;DHT22;2732;52.092;11.556;2024-01-27T07:54:32;3.90;99.90
5419;DHT22;2732;52.092;11.556;2024-01-27T07:59:39;3.80;99.90
5419;DHT22;2732;52.092;11.556;2024-01-27T08:04:39;3.80;99.90
5419;DHT22;2732;52.092;11.556;2024-01-27T08:09:40;3.80;99.90
5419;DHT22;2732;52.092;11.556;2024-01-27T08:14:41;3.80;99.90
5419;DHT22;2732;52.092;11.556;2024-01-27T08:19:41;3.80;99.90
5419;DHT22;2732;52.092;11.556;2024-01-27T08:24:42;3.80;99.90
5419;DHT22;2732;52.092;11.556;2024-01-27T08:29:43;3.80;99.90
5419;DHT22;2732;52.092;11.556;2024-01-27T08:34:43;3.80;99.90
5419;DHT22;2732;52.092;11.556;2024-01-27T08:39:44;3.80;99.90
5419;DHT22;2732;52.092;11.556;2024-01-27T08:44:45;3.80;99.90
5419;DHT22;2732;52.092;11.556;2024-01-27T08:49:46;3.90;99.90
5419;DHT22;2732;52.092;11.556;2024-01-27T08:54:47;3.90;99.90
5419;DHT22;2732;52.092;11.556;2024-01-27T08:59:47;3.90;99.90
5419;DHT22;2732;52.092;11.556;2024-01-27T09:04:48;3.90;99.90
5419;DHT22;2732;52.092;11.556;2024-01-27T09:09:48;4.00;99.90
5419;DHT22;2732;52.092;11.556;2024-01-27T09:14:49;4.00;99.90
5419;DHT22;2732;52.092;11.556;2024-01-27T09:19:50;4.10;99.90
5419;DHT22;2732;52.092;11.556;2024-01-27T09:24:51;4.10;99.90
5419;DHT22;2732;52.092;11.556;2024-01-27T09:29:53;4.20;99.90
5419;DHT22;2732;52.092;11.556;2024-01-27T09:34:53;4.30;99.90
5419;DHT22;2732;52.092;11.556;2024-01-27T09:39:54;4.30;99.90
5419;DHT22;2732;52.092;11.556;2024-01-27T09:44:56;4.40;99.90
5419;DHT22;2732;52.092;11.556;2024-01-27T09:49:58;4.40;99.90
5419;DHT22;2732;52.092;11.556;2024-01-27T09:55:00;4.50;99.90
5419;DHT22;2732;52.092;11.556;2024-01-27T10:00:01;4.60;99.90
5419;DHT22;2732;52.092;11.556;2024-01-27T10:05:02;4.60;99.90
5419;DHT22;2732;52.092;11.556;2024-01-27T10:10:04;4.70;99.90
5419;DHT22;2732;52.092;11.556;2024-01-27T10:15:06;4.80;99.90
5419;DHT22;2732;52.092;11.556;2024-01-27T10:20:07;4.80;99.90
5419;DHT22;2732;52.092;11.556;2024-01-27T10:25:10;4.90;99.90
5419;DHT22;2732;52.092;11.556;2024-01-27T10:30:16;5.00;99.90
5419;DHT22;2732;52.092;11.556;2024-01-27T10:35:17;5.00;99.90
5419;DHT22;2732;52.092;11.556;2024-01-27T10:40:19;5.10;99.90
5419;DHT22;2732;52.092;11.556;2024-01-27T10:45:20;5.10;99.90
5419;DHT22;2732;52.092;11.556;2024-01-27T10:50:21;5.20;99.90
5419;DHT22;2732;52.092;11.556;2024-01-27T10:55:22;5.30;99.90
5419;DHT22;2732;52.092;11.556;2024-01-27T11:00:24;5.30;99.90
5419;DHT22;2732;52.092;11.556;2024-01-27T11:05:27;5.40;99.90
5419;DHT22;2732;52.092;11.556;2024-01-27T11:10:30;5.40;99.90
5419;DHT22;2732;52.092;11.556;2024-01-27T11:15:35;5.50;99.90
5419;DHT22;2732;52.092;11.556;2024-01-27T11:20:36;5.60;99.90
5419;DHT22;2732;52.092;11.556;2024-01-27T11:25:44;5.60;99.90
5419;DHT22;2732;52.092;11.556;2024-01-27T11:30:47;5.70;99.90
5419;DHT22;2732;52.092;11.556;2024-01-27T11:36:00;5.80;99.90
5419;DHT22;2732;52.092;11.556;2024-01-27T11:41:05;5.80;99.90
5419;DHT22;2732;52.092;11.556;2024-01-27T11:46:05;5.90;99.90
5419;DHT22;2732;52.092;11.556;2024-01-27T11:51:07;5.90;99.90
5419;DHT22;2732;52.092;11.556;2024-01-27T11:56:11;6.00;99.90
5419;DHT22;2732;52.092;11.556;2024-01-27T12:01:11;6.10;99.90
5419;DHT22;2732;52.092;11.556;2024-01-27T12:06:12;6.10;99.90
5419;DHT22;2732;52.092;11.556;2024-01-27T12:11:13;6.10;99.90
5419;DHT22;2732;52.092;11.556;2024-01-27T12:16:15;6.20;99.90
5419;DHT22;2732;52.092;11.556;2024-01-27T12:21:19;6.20;99.90
5419;DHT22;2732;52.092;11.556;2024-01-27T12:26:25;6.20;99.90
5419;DHT22;2732;52.092;11.556;2024-01-27T12:31:27;6.30;99.90
5419;DHT22;2732;52.092;11.556;2024-01-27T12:36:27;6.30;99.90
5419;DHT22;2732;52.092;11.556;2024-01-27T12:41:28;6.40;99.90
5419;DHT22;2732;52.092;11.556;2024-01-27T12:46:34;6.40;99.90
5419;DHT22;2732;52.092;11.556;2024-01-27T12:51:35;6.40;99.90
5419;DHT22;2732;52.092;11.556;2024-01-27T12:56:35;6.50;99.90
5419;DHT22;2732;52.092;11.556;2024-01-27T13:01:36;6.50;99.90
5419;DHT22;2732;52.092;11.556;2024-01-27T13:06:39;6.60;99.90
5419;DHT22;2732;52.092;11.556;2024-01-27T13:11:39;6.60;99.90
5419;DHT22;2732;52.092;11.556;2024-01-27T13:16:40;6.60;99.90
5419;DHT22;2732;52.092;11.556;2024-01-27T13:21:41;6.70;99.90
5419;DHT22;2732;52.092;11.556;2024-01-27T13:26:41;6.70;99.90
5419;DHT22;2732;52.092;11.556;2024-01-27T13:31:42;6.70;99.90
5419;DHT22;2732;52.092;11.556;2024-01-27T13:36:42;6.80;99.90
5419;DHT22;2732;52.092;11.556;2024-01-27T13:41:43;6.90;99.90
5419;DHT22;2732;52.092;11.556;2024-01-27T13:46:43;6.90;99.90
5419;DHT22;2732;52.092;11.556;2024-01-27T13:51:44;7.00;99.90
5419;DHT22;2732;52.092;11.556;2024-01-27T13:56:45;7.10;99.90
5419;DHT22;2732;52.092;11.556;2024-01-27T14:01:45;7.30;99.90
5419;DHT22;2732;52.092;11.556;2024-01-27T14:06:46;7.40;99.90
5419;DHT22;2732;52.092;11.556;2024-01-27T14:11:47;7.50;99.90
5419;DHT22;2732;52.092;11.556;2024-01-27T14:16:48;7.60;99.90
5419;DHT22;2732;52.092;11.556;2024-01-27T14:21:48;7.60;99.90
5419;DHT22;2732;52.092;11.556;2024-01-27T14:26:49;7.50;99.90
5419;DHT22;2732;52.092;11.556;2024-01-27T14:31:50;7.50;99.90
5419;DHT22;2732;52.092;11.556;2024-01-27T14:36:51;7.40;99.90
5419;DHT22;2732;52.092;11.556;2024-01-27T14:41:53;7.40;99.90
5419;DHT22;2732;52.092;11.556;2024-01-27T14:46:53;7.40;99.90
5419;DHT22;2732;52.092;11.556;2024-01-27T14:51:54;7.30;99.90
5419;DHT22;2732;52.092;11.556;2024-01-27T14:56:54;7.30;99.90
5419;DHT22;2732;52.092;11.556;2024-01-27T15:01:55;7.30;99.90
5419;DHT22;2732;52.092;11.556;2024-01-27T15:06:59;7.30;99.90
5419;DHT22;2732;52.092;11.556;2024-01-27T15:11:59;7.20;99.90
5419;DHT22;2732;52.092;11.556;2024-01-27T15:17:00;7.20;99.90
5419;DHT22;2732;52.092;11.556;2024-01-27T15:22:01;7.00;99.90
5419;DHT22;2732;52.092;11.556;2024-01-27T15:27:02;6.90;99.90
5419;DHT22;2732;52.092;11.556;2024-01-27T15:32:03;6.80;99.90
5419;DHT22;2732;52.092;11.556;2024-01-27T15:37:04;6.70;99.90
5419;DHT22;2732;52.092;11.556;2024-01-27T15:42:05;6.60;99.90
5419;DHT22;2732;52.092;11.556;2024-01-27T15:47:05;6.50;99.90
5419;DHT22;2732;52.092;11.556;2024-01-27T15:52:07;6.30;99.90
5419;DHT22;2732;52.092;11.556;2024-01-27T15:57:08;6.20;99.90
5419;DHT22;2732;52.092;11.556;2024-01-27T16:02:09;6.10;99.90
5419;DHT22;2732;52.092;11.556;2024-01-27T16:07:10;6.00;99.90
5419;DHT22;2732;52.092;11.556;2024-01-27T16:12:10;5.80;99.90
5419;DHT22;2732;52.092;11.556;2024-01-27T16:17:11;5.70;99.90
5419;DHT22;2732;52.092;11.556;2024-01-27T16:22:12;5.60;99.90
5419;DHT22;2732;52.092;11.556;2024-01-27T16:27:13;5.50;99.90
5419;DHT22;2732;52.092;11.556;2024-01-27T16:32:13;5.40;99.90
5419;DHT22;2732;52.092;11.556;2024-01-27T16:37:18;5.30;99.90
5419;DHT22;2732;52.092;11.556;2024-01-27T16:42:20;5.20;99.90
5419;DHT22;2732;52.092;11.556;2024-01-27T16:47:22;5.10;99.90
5419;DHT22;2732;52.092;11.556;2024-01-27T16:52:22;5.00;99.90
5419;DHT22;2732;52.092;11.556;2024-01-27T16:57:24;5.00;99.90
5419;DHT22;2732;52.092;11.556;2024-01-27T17:02:25;4.90;99.90
5419;DHT22;2732;52.092;11.556;2024-01-27T17:07:26;4.80;99.90
5419;DHT22;2732;52.092;11.556;2024-01-27T17:12:26;4.70;99.90
5419;DHT22;2732;52.092;11.556;2024-01-27T17:17:27;4.70;99.90
5419;DHT22;2732;52.092;11.556;2024-01-27T17:22:28;4.60;99.90
5419;DHT22;2732;52.092;11.556;2024-01-27T17:27:29;4.50;99.90
5419;DHT22;2732;52.092;11.556;2024-01-27T17:32:30;4.50;99.90
5419;DHT22;2732;52.092;11.556;2024-01-27T17:37:30;4.40;99.90
5419;DHT22;2732;52.092;11.556;2024-01-27T17:42:36;4.30;99.90
5419;DHT22;2732;52.092;11.556;2024-01-27T17:47:37;4.30;99.90
5419;DHT22;2732;52.092;11.556;2024-01-27T17:52:38;4.30;99.90
5419;DHT22;2732;52.092;11.556;2024-01-27T17:57:40;4.20;99.90
5419;DHT22;2732;52.092;11.556;2024-01-27T18:02:41;4.10;99.90
5419;DHT22;2732;52.092;11.556;2024-01-27T18:07:42;4.10;99.90
5419;DHT22;2732;52.092;11.556;2024-01-27T18:12:42;4.00;99.90
5419;DHT22;2732;52.092;11.556;2024-01-27T18:17:43;4.00;99.90
5419;DHT22;2732;52.092;11.556;2024-01-27T18:22:43;3.90;99.90
5419;DHT22;2732;52.092;11.556;2024-01-27T18:27:44;3.90;99.90
5419;DHT22;2732;52.092;11.556;2024-01-27T18:32:45;3.80;99.90
5419;DHT22;2732;52.092;11.556;2024-01-27T18:37:45;3.80;99.90
5419;DHT22;2732;52.092;11.556;2024-01-27T18:42:46;3.70;99.90
5419;DHT22;2732;52.092;11.556;2024-01-27T18:47:46;3.70;99.90
5419;DHT22;2732;52.092;11.556;2024-01-27T18:52:47;3.60;99.90
5419;DHT22;2732;52.092;11.556;2024-01-27T18:57:53;3.60;99.90
5419;DHT22;2732;52.092;11.556;2024-01-27T19:02:54;3.50;99.90
5419;DHT22;2732;52.092;11.556;2024-01-27T19:07:54;3.50;99.90
5419;DHT22;2732;52.092;11.556;2024-01-27T19:12:55;3.40;99.90
5419;DHT22;2732;52.092;11.556;2024-01-27T19:17:55;3.40;99.90
5419;DHT22;2732;52.092;11.556;2024-01-27T19:22:56;3.30;99.90
5419;DHT22;2732;52.092;11.556;2024-01-27T19:27:56;3.30;99.90
5419;DHT22;2732;52.092;11.556;2024-01-27T19:32:57;3.20;99.90
5419;DHT22;2732;52.092;11.556;2024-01-27T19:37:58;3.20;99.90
5419;DHT22;2732;52.092;11.556;2024-01-27T19:43:00;3.20;99.90
5419;DHT22;2732;52.092;11.556;2024-01-27T19:48:01;3.10;99.90
5419;DHT22;2732;52.092;11.556;2024-01-27T19:53:01;3.10;99.90
5419;DHT22;2732;52.092;11.556;2024-01-27T19:58:09;3.00;99.90
5419;DHT22;2732;52.092;11.556;2024-01-27T20:03:09;3.00;99.90
5419;DHT22;2732;52.092;11.556;2024-01-27T20:08:10;3.00;99.90
5419;DHT22;2732;52.092;11.556;2024-01-27T20:13:11;2.90;99.90
5419;DHT22;2732;52.092;11.556;2024-01-27T20:18:11;2.80;99.90
5419;DHT22;2732;52.092;11.556;2024-01-27T20:23:12;2.80;99.90
5419;DHT22;2732;52.092;11.556;2024-01-27T20:28:13;2.80;99.90
5419;DHT22;2732;52.092;11.556;2024-01-27T20:33:14;2.70;99.90
5419;DHT22;2732;52.092;11.556;2024-01-27T20:38:14;2.70;99.90
5419;DHT22;2732;52.092;11.556;2024-01-27T20:43:16;2.60;99.90
5419;DHT22;2732;52.092;11.556;2024-01-27T20:48:17;2.60;99.90
5419;DHT22;2732;52.092;11.556;2024-01-27T20:53:17;2.50;99.90
5419;DHT22;2732;52.092;11.556;2024-01-27T20:58:18;2.50;99.90
5419;DHT22;2732;52.092;11.556;2024-01-27T21:03:19;2.40;99.90
5419;DHT22;2732;52.092;11.556;2024-01-27T21:08:20;2.40;99.90
5419;DHT22;2732;52.092;11.556;2024-01-27T21:13:21;2.40;99.90
5419;DHT22;2732;52.092;11.556;2024-01-27T21:18:22;2.30;99.90
5419;DHT22;2732;52.092;11.556;2024-01-27T21:23:25;2.30;99.90
5419;DHT22;2732;52.092;11.556;2024-01-27T21:28:26;2.30;99.90
5419;DHT22;2732;52.092;11.556;2024-01-27T21:33:27;2.20;99.90
5419;DHT22;2732;52.092;11.556;2024-01-27T21:38:28;2.20;99.90
5419;DHT22;2732;52.092;11.556;2024-01-27T21:43:28;2.20;99.90
5419;DHT22;2732;52.092;11.556;2024-01-27T21:48:29;2.20;99.90
5419;DHT22;2732;52.092;11.556;2024-01-27T21:53:30;2.20;99.90
5419;DHT22;2732;52.092;11.556;2024-01-27T21:58:30;2.10;99.90
5419;DHT22;2732;52.092;11.556;2024-01-27T22:03:31;2.10;99.90
5419;DHT22;2732;52.092;11.556;2024-01-27T22:08:36;2.10;99.90
5419;DHT22;2732;52.092;11.556;2024-01-27T22:13:37;2.10;99.90
5419;DHT22;2732;52.092;11.556;2024-01-27T22:18:38;2.10;99.90
5419;DHT22;2732;52.092;11.556;2024-01-27T22:23:39;2.10;99.90
5419;DHT22;2732;52.092;11.556;2024-01-27T22:28:40;2.00;99.90
5419;DHT22;2732;52.092;11.556;2024-01-27T22:33:40;2.00;99.90
5419;DHT22;2732;52.092;11.556;2024-01-27T22:38:41;2.00;99.90
5419;DHT22;2732;52.092;11.556;2024-01-27T22:43:43;2.00;99.90
5419;DHT22;2732;52.092;11.556;2024-01-27T22:48:44;2.00;99.90
5419;DHT22;2732;52.092;11.556;2024-01-27T22:53:45;2.00;99.90
5419;DHT22;2732;52.092;11.556;2024-01-27T22:58:46;2.00;99.90
5419;DHT22;2732;52.092;11.556;2024-01-27T23:03:47;2.00;99.90
5419;DHT22;2732;52.092;11.556;2024-01-27T23:08:48;2.00;99.90
5419;DHT22;2732;52.092;11.556;2024-01-27T23:13:48;2.00;99.90
5419;DHT22;2732;52.092;11.556;2024-01-27T23:18:49;2.00;99.90
5419;DHT22;2732;52.092;11.556;2024-01-27T23:23:50;1.90;99.90
5419;DHT22;2732;52.092;11.556;2024-01-27T23:28:50;1.90;99.90
5419;DHT22;2732;52.092;11.556;2024-01-27T23:33:51;1.90;99.90
5419;DHT22;2732;52.092;11.556;2024-01-27T23:38:51;1.90;99.90
5419;DHT22;2732;52.092;11.556;2024-01-27T23:43:52;1.90;99.90
5419;DHT22;2732;52.092;11.556;2024-01-27T23:48:53;1.90;99.90
5419;DHT22;2732;52.092;11.556;2024-01-27T23:53:54;1.90;99.90
5419;DHT22;2732;52.092;11.556;2024-01-27T23:58:57;1.80;99.90
